Time;durP1;ratioP1;P1;durP2;ratioP2;P2;SDS_P1;SDS_P2;PMS_P1;PMS_P2;Temp;Humidity;BMP_temperature;BMP_pressure;BME280_temperature;BME280_humidity;BME280_pressure;Samples;Min_cycle;Max_cycle;Signal;HPM_P1;HPM_P2
2022/03/19 00:00:33;;;;;;;15.82;2.92;;;4.00;99.90;;;;;;5138062;27;20038;-73
2022/03/19 00:02:59;;;;;;;13.32;2.97;;;4.00;99.90;;;;;;5120703;27;20039;-73
2022/03/19 00:05:24;;;;;;;11.75;3.22;;;4.00;99.90;;;;;;5137555;27;20035;-74
2022/03/19 00:07:50;;;;;;;12.57;2.55;;;4.00;99.90;;;;;;5137821;27;20441;-72
2022/03/19 00:10:16;;;;;;;10.85;2.85;;;4.00;99.90;;;;;;5120864;27;20094;-72
2022/03/19 00:12:42;;;;;;;13.95;3.38;;;4.00;99.90;;;;;;5137828;27;20035;-73
2022/03/19 00:15:10;;;;;;;13.50;4.00;;;4.00;99.90;;;;;;5137879;27;20098;-73
2022/03/19 00:17:37;;;;;;;17.85;3.70;;;4.00;99.90;;;;;;5120454;27;20034;-73
2022/03/19 00:20:03;;;;;;;10.07;3.33;;;4.00;99.90;;;;;;5120572;27;20473;-72
2022/03/19 00:22:29;;;;;;;11.82;3.17;;;3.90;99.90;;;;;;5120470;27;20167;-73
2022/03/19 00:24:55;;;;;;;13.65;3.28;;;3.90;99.90;;;;;;5120212;27;20089;-73
2022/03/19 00:27:21;;;;;;;14.80;3.65;;;3.90;99.90;;;;;;5137476;27;20517;-73
2022/03/19 00:29:47;;;;;;;12.18;3.10;;;3.90;99.90;;;;;;5137334;27;20379;-72
2022/03/19 00:32:12;;;;;;;14.05;3.63;;;3.90;99.90;;;;;;5103204;27;20409;-72
2022/03/19 00:34:38;;;;;;;13.43;3.22;;;4.60;99.90;;;;;;5137329;27;20577;-73
2022/03/19 00:37:04;;;;;;;13.05;3.10;;;3.80;99.90;;;;;;5137188;27;20410;-72
2022/03/19 00:39:29;;;;;;;13.00;3.45;;;3.90;99.90;;;;;;5137286;27;20401;-73
2022/03/19 00:41:55;;;;;;;12.75;3.80;;;3.90;99.90;;;;;;5103039;27;20039;-73
2022/03/19 00:44:24;;;;;;;12.63;3.60;;;3.80;99.90;;;;;;5136954;27;20121;-73
2022/03/19 00:46:50;;;;;;;16.58;3.55;;;3.80;99.90;;;;;;5120165;27;20031;-72
2022/03/19 00:49:16;;;;;;;12.55;3.72;;;3.80;99.90;;;;;;5137298;27;20042;-72
2022/03/19 00:51:41;;;;;;;15.52;3.95;;;3.80;99.90;;;;;;5120023;27;20481;-72
2022/03/19 00:54:09;;;;;;;10.43;3.83;;;3.80;99.90;;;;;;5119906;27;20109;-73
2022/03/19 00:56:35;;;;;;;11.13;3.75;;;3.70;99.90;;;;;;5137048;27;20463;-73
2022/03/19 00:59:01;;;;;;;11.32;3.30;;;3.70;99.90;;;;;;5136783;27;20035;-73
2022/03/19 01:01:27;;;;;;;13.82;3.80;;;3.90;99.90;;;;;;5136830;27;20077;-73
2022/03/19 01:03:54;;;;;;;8.55;3.22;;;3.90;99.90;;;;;;5136740;27;20098;-72
2022/03/19 01:06:20;;;;;;;16.33;5.03;;;3.70;99.90;;;;;;5136668;27;20039;-73
2022/03/19 01:08:46;;;;;;;14.65;3.42;;;3.60;99.90;;;;;;5136608;27;20049;-73
2022/03/19 01:11:12;;;;;;;18.92;4.30;;;3.60;99.90;;;;;;5136843;27;20042;-73
2022/03/19 01:13:38;;;;;;;12.43;3.50;;;3.60;99.90;;;;;;5135985;27;20332;-74
2022/03/19 01:16:03;;;;;;;16.48;3.60;;;3.60;99.90;;;;;;5136461;27;20490;-73
2022/03/19 01:18:30;;;;;;;16.45;4.78;;;3.60;99.90;;;;;;5119225;27;20047;-73
2022/03/19 01:20:56;;;;;;;13.13;3.20;;;3.50;99.90;;;;;;5119295;27;20109;-73
2022/03/19 01:23:22;;;;;;;12.00;3.78;;;3.50;99.90;;;;;;5136498;27;20038;-73
2022/03/19 01:25:48;;;;;;;16.50;3.20;;;3.50;99.90;;;;;;5136049;27;20478;-73
2022/03/19 01:28:14;;;;;;;18.90;3.60;;;3.40;99.90;;;;;;5136291;27;20118;-73
2022/03/19 01:30:40;;;;;;;17.33;3.35;;;3.70;99.90;;;;;;5119404;27;20034;-73
2022/03/19 01:33:06;;;;;;;12.02;3.72;;;3.40;99.90;;;;;;5136125;27;20083;-73
2022/03/19 01:35:31;;;;;;;9.68;2.95;;;3.40;99.90;;;;;;5118973;27;20039;-73
2022/03/19 01:37:58;;;;;;;15.80;3.55;;;3.30;99.90;;;;;;5136390;27;20042;-73
2022/03/19 01:40:24;;;;;;;9.68;3.10;;;3.30;99.90;;;;;;5136433;27;20038;-73
2022/03/19 01:42:51;;;;;;;11.88;3.50;;;3.30;99.90;;;;;;5118930;27;20046;-73
2022/03/19 01:45:21;;;;;;;13.68;3.67;;;3.30;99.90;;;;;;5119402;27;20393;-73
2022/03/19 01:47:48;;;;;;;12.73;3.85;;;3.20;99.90;;;;;;5135874;27;20035;-73
2022/03/19 01:50:14;;;;;;;16.65;3.50;;;3.70;99.90;;;;;;5136214;27;20040;-74
2022/03/19 01:52:41;;;;;;;11.98;2.90;;;3.20;99.90;;;;;;5118841;27;20042;-74
2022/03/19 01:55:08;;;;;;;14.65;3.42;;;3.40;99.90;;;;;;5136401;27;20375;-72
2022/03/19 01:57:37;;;;;;;11.52;2.88;;;3.20;99.90;;;;;;5135913;27;20042;-72
2022/03/19 02:00:06;;;;;;;13.45;3.33;;;3.10;99.90;;;;;;5135738;27;20043;-71
2022/03/19 02:02:32;;;;;;;17.08;4.38;;;3.20;99.90;;;;;;5135807;27;20034;-72
2022/03/19 02:05:01;;;;;;;11.15;3.42;;;3.10;99.90;;;;;;5135695;27;20091;-72
2022/03/19 02:07:27;;;;;;;13.27;3.75;;;3.10;99.90;;;;;;5135680;27;20033;-73
2022/03/19 02:09:56;;;;;;;17.13;3.38;;;3.70;99.90;;;;;;5118370;27;20038;-73
2022/03/19 02:12:22;;;;;;;14.25;3.20;;;3.10;99.90;;;;;;5118951;27;20042;-72
2022/03/19 02:14:48;;;;;;;14.98;3.88;;;3.00;99.90;;;;;;5135616;27;20050;-72
2022/03/19 02:17:14;;;;;;;14.93;3.83;;;2.80;99.90;;;;;;5135911;27;20047;-73
2022/03/19 02:19:54;;;;;;;14.48;3.40;;;3.00;99.90;;;;;;5135451;27;20042;-73
2022/03/19 02:22:22;;;;;;;11.70;3.15;;;3.60;99.90;;;;;;5135569;27;20038;-73
2022/03/19 02:27:34;;;;;;;10.27;3.58;;;2.90;99.90;;;;;;5135611;27;20093;-72
2022/03/19 02:30:00;;;;;;;13.02;3.33;;;3.30;99.90;;;;;;5136357;27;20039;-71
2022/03/19 02:32:27;;;;;;;15.75;4.05;;;3.00;99.90;;;;;;5119084;27;20031;-72
2022/03/19 02:34:53;;;;;;;14.13;3.63;;;2.90;99.90;;;;;;5119355;27;20454;-73
2022/03/19 02:37:19;;;;;;;16.58;3.33;;;2.90;99.90;;;;;;5136428;27;20050;-73
2022/03/19 02:39:45;;;;;;;14.88;3.78;;;2.90;99.90;;;;;;5136049;27;20071;-72
2022/03/19 02:42:16;;;;;;;17.55;4.50;;;2.90;99.90;;;;;;5136180;27;20047;-72
2022/03/19 02:44:42;;;;;;;13.47;3.70;;;2.80;99.90;;;;;;5136718;27;20433;-72
2022/03/19 02:47:08;;;;;;;13.10;3.45;;;2.90;99.90;;;;;;5135982;27;20031;-72
2022/03/19 02:49:35;;;;;;;17.40;4.15;;;2.60;99.90;;;;;;5135913;27;20042;-72
2022/03/19 02:52:01;;;;;;;11.57;3.90;;;2.80;99.90;;;;;;5135795;27;20043;-72
2022/03/19 02:54:31;;;;;;;18.48;5.05;;;2.80;99.90;;;;;;5135817;27;20095;-72
2022/03/19 02:56:58;;;;;;;13.00;4.13;;;2.80;99.90;;;;;;5135821;27;20051;-73
2022/03/19 02:59:32;;;;;;;12.15;4.00;;;2.80;99.90;;;;;;5118438;27;20043;-72
2022/03/19 03:02:00;;;;;;;15.40;4.43;;;2.80;99.90;;;;;;5118896;27;20335;-72
2022/03/19 03:04:26;;;;;;;17.17;4.25;;;2.80;99.90;;;;;;5135703;27;20447;-73
2022/03/19 03:06:54;;;;;;;14.45;4.93;;;2.80;99.90;;;;;;5118532;27;20503;-73
2022/03/19 03:09:23;;;;;;;14.98;3.88;;;3.10;99.90;;;;;;5135852;27;20051;-72
2022/03/19 03:11:49;;;;;;;16.60;3.80;;;2.70;99.90;;;;;;5118278;27;20053;-72
2022/03/19 03:14:15;;;;;;;12.32;3.97;;;2.60;99.90;;;;;;5135482;27;20054;-72
2022/03/19 03:16:42;;;;;;;11.95;3.97;;;2.60;99.90;;;;;;5135351;27;20118;-73
2022/03/19 03:19:10;;;;;;;12.65;3.55;;;2.50;99.90;;;;;;5118124;27;20043;-73
2022/03/19 03:21:36;;;;;;;15.10;4.50;;;2.50;99.90;;;;;;5135535;27;20538;-72
2022/03/19 03:24:03;;;;;;;10.52;3.83;;;3.20;99.90;;;;;;5135308;27;20039;-73
2022/03/19 03:26:30;;;;;;;10.85;3.90;;;2.40;99.90;;;;;;5135049;27;20118;-73
2022/03/19 03:28:56;;;;;;;17.45;4.18;;;2.20;99.90;;;;;;5118305;27;20470;-73
2022/03/19 03:31:22;;;;;;;13.88;3.67;;;2.40;99.90;;;;;;5135157;27;20074;-72
2022/03/19 03:33:48;;;;;;;15.88;4.55;;;2.30;99.90;;;;;;5118028;27;20076;-73
2022/03/19 03:36:14;;;;;;;14.20;4.45;;;3.30;99.90;;;;;;5134849;27;20050;-73
2022/03/19 03:38:40;;;;;;;14.00;4.03;;;2.60;99.90;;;;;;5134438;27;20417;-72
2022/03/19 03:41:06;;;;;;;9.95;4.03;;;2.30;99.90;;;;;;5135155;27;20394;-72
2022/03/19 03:43:32;;;;;;;14.80;3.88;;;2.40;99.90;;;;;;5135144;27;20050;-73
2022/03/19 03:45:58;;;;;;;13.43;3.67;;;2.30;99.90;;;;;;5135166;27;20042;-73
2022/03/19 03:48:24;;;;;;;19.63;4.72;;;2.40;99.90;;;;;;5134752;27;20140;-72
2022/03/19 03:50:52;;;;;;;14.25;4.10;;;3.10;99.90;;;;;;5117686;27;20074;-72
2022/03/19 03:53:19;;;;;;;12.15;4.55;;;2.20;99.90;;;;;;5134768;27;20075;-73
2022/03/19 03:55:45;;;;;;;9.80;3.67;;;2.30;99.90;;;;;;5117992;27;20035;-72
2022/03/19 03:58:11;;;;;;;14.52;4.35;;;2.30;99.90;;;;;;5117523;27;20125;-72
2022/03/19 04:00:38;;;;;;;12.65;3.95;;;2.10;99.90;;;;;;5134579;27;20069;-73
2022/03/19 04:03:04;;;;;;;16.70;4.47;;;2.40;99.90;;;;;;5134559;27;20035;-72
2022/03/19 04:05:30;;;;;;;10.13;4.10;;;2.20;99.90;;;;;;5134833;27;20047;-73
2022/03/19 04:07:57;;;;;;;15.15;4.38;;;2.20;99.90;;;;;;5134595;27;20031;-73
2022/03/19 04:10:22;;;;;;;15.65;4.70;;;2.50;99.90;;;;;;5134630;27;20501;-73
2022/03/19 04:12:48;;;;;;;16.15;4.93;;;2.50;99.90;;;;;;5134328;27;20096;-73
2022/03/19 04:15:14;;;;;;;16.20;5.30;;;2.60;99.90;;;;;;5117214;27;20100;-73
2022/03/19 04:17:43;;;;;;;14.15;4.68;;;2.10;99.90;;;;;;5134253;27;20043;-73
2022/03/19 04:20:09;;;;;;;16.42;4.72;;;2.50;99.90;;;;;;5084052;27;20035;-73
2022/03/19 04:22:43;;;;;;;15.52;5.13;;;2.30;99.90;;;;;;5117141;27;20418;-73
2022/03/19 04:25:15;;;;;;;14.57;4.53;;;2.20;99.90;;;;;;5133888;27;20098;-73
2022/03/19 04:27:42;;;;;;;13.80;4.68;;;2.50;99.90;;;;;;5134461;27;20039;-73
2022/03/19 04:30:11;;;;;;;16.33;5.45;;;2.50;99.90;;;;;;5134383;27;20482;-73
2022/03/19 04:32:48;;;;;;;15.57;5.32;;;2.10;99.90;;;;;;5117237;27;20039;-73
2022/03/19 04:38:04;;;;;;;18.80;5.70;;;2.40;99.90;;;;;;5119660;27;20600;-73
2022/03/19 04:40:30;;;;;;;17.25;5.28;;;2.30;99.90;;;;;;5116829;27;20042;-73
2022/03/19 04:42:56;;;;;;;19.70;5.07;;;2.30;99.90;;;;;;5134096;27;20036;-73
2022/03/19 04:45:22;;;;;;;19.25;6.15;;;2.40;99.90;;;;;;5134083;27;20039;-73
2022/03/19 04:47:48;;;;;;;12.45;4.50;;;2.30;99.90;;;;;;5133691;27;20039;-73
2022/03/19 04:50:13;;;;;;;13.07;5.28;;;2.50;99.90;;;;;;5132830;27;20043;-73
2022/03/19 04:52:39;;;;;;;14.77;5.40;;;2.30;99.90;;;;;;5116501;27;20039;-73
2022/03/19 04:55:10;;;;;;;12.88;4.72;;;2.40;99.90;;;;;;5133739;27;20039;-73
2022/03/19 04:57:36;;;;;;;22.93;7.53;;;2.30;99.90;;;;;;5133769;27;20039;-72
2022/03/19 05:00:04;;;;;;;12.82;6.20;;;2.40;99.90;;;;;;5133554;27;20046;-72
2022/03/19 05:02:30;;;;;;;14.77;5.55;;;2.10;99.90;;;;;;5133559;27;20053;-72
2022/03/19 05:04:56;;;;;;;13.45;5.18;;;2.30;99.90;;;;;;5133295;27;20035;-72
2022/03/19 05:07:23;;;;;;;19.50;6.60;;;2.30;99.90;;;;;;5133245;27;20038;-73
2022/03/19 05:12:41;;;;;;;14.10;4.90;;;2.30;99.90;;;;;;5133412;27;20418;-73
2022/03/19 05:15:10;;;;;;;11.77;6.00;;;2.20;99.90;;;;;;5098923;27;20084;-72
2022/03/19 05:17:36;;;;;;;14.93;5.82;;;2.00;99.90;;;;;;5133040;27;20047;-73
2022/03/19 05:20:03;;;;;;;16.05;4.97;;;2.20;99.90;;;;;;5132871;27;20570;-73
2022/03/19 05:22:29;;;;;;;19.70;6.40;;;2.00;99.90;;;;;;5099293;27;20367;-74
2022/03/19 05:24:58;;;;;;;13.88;5.95;;;2.10;99.90;;;;;;5132628;27;20054;-72
2022/03/19 05:27:25;;;;;;;16.17;5.45;;;1.90;99.90;;;;;;5132778;27;20047;-73
2022/03/19 05:29:51;;;;;;;12.80;6.60;;;2.70;99.90;;;;;;5132769;27;20043;-72
2022/03/19 05:32:17;;;;;;;14.35;5.90;;;1.90;99.90;;;;;;5132791;27;20121;-72
2022/03/19 05:34:43;;;;;;;20.95;6.32;;;2.30;99.90;;;;;;5132738;27;20043;-73
2022/03/19 05:37:10;;;;;;;20.52;6.57;;;2.60;99.90;;;;;;5132980;27;20480;-73
2022/03/19 05:39:37;;;;;;;16.90;5.90;;;2.20;99.90;;;;;;5115547;27;20039;-74
2022/03/19 05:42:04;;;;;;;16.73;6.70;;;2.00;99.90;;;;;;5132691;27;20054;-73
2022/03/19 05:44:29;;;;;;;15.45;5.60;;;2.00;99.90;;;;;;5132585;27;20045;-73
2022/03/19 05:46:58;;;;;;;12.45;6.07;;;2.20;99.90;;;;;;5115420;27;20039;-73
2022/03/19 05:49:25;;;;;;;19.77;6.28;;;1.80;99.90;;;;;;5115345;27;20035;-72
2022/03/19 05:51:51;;;;;;;13.70;6.22;;;2.10;99.90;;;;;;5132710;27;20043;-72
2022/03/19 05:54:17;;;;;;;15.75;5.90;;;2.00;99.90;;;;;;5132460;27;20107;-72
2022/03/19 05:56:43;;;;;;;21.15;6.57;;;2.00;99.90;;;;;;5132408;27;20078;-72
2022/03/19 05:59:09;;;;;;;17.90;5.72;;;2.40;99.90;;;;;;5115149;27;20074;-72
2022/03/19 06:01:35;;;;;;;14.88;6.20;;;2.00;99.90;;;;;;5132408;27;20035;-72
2022/03/19 06:04:01;;;;;;;17.70;5.60;;;1.90;99.90;;;;;;5115590;28;20380;-72
2022/03/19 06:06:27;;;;;;;21.00;7.40;;;2.20;99.90;;;;;;5115239;27;20164;-72
2022/03/19 06:08:54;;;;;;;20.48;6.70;;;2.10;99.90;;;;;;5132256;27;20089;-74
2022/03/19 06:11:20;;;;;;;16.08;7.15;;;2.00;99.90;;;;;;5132336;27;20043;-72
2022/03/19 06:13:46;;;;;;;23.52;7.20;;;2.20;99.90;;;;;;5115437;28;20393;-73
2022/03/19 06:16:12;;;;;;;14.18;6.22;;;2.20;99.90;;;;;;5132594;28;20041;-73
2022/03/19 06:18:37;;;;;;;15.98;6.68;;;2.30;99.90;;;;;;5115057;28;20035;-73
2022/03/19 06:21:03;;;;;;;19.65;6.88;;;2.20;99.90;;;;;;5132200;28;20043;-73
2022/03/19 06:23:30;;;;;;;16.60;6.50;;;2.20;99.90;;;;;;5132290;28;20031;-73
2022/03/19 06:25:56;;;;;;;22.42;6.88;;;2.70;99.90;;;;;;5131888;28;20045;-73
2022/03/19 06:28:22;;;;;;;16.52;6.72;;;2.70;99.90;;;;;;5132047;28;20049;-73
2022/03/19 06:30:48;;;;;;;19.10;6.85;;;2.40;99.90;;;;;;5115007;28;20027;-72
2022/03/19 06:33:14;;;;;;;22.73;7.22;;;2.60;99.90;;;;;;5132477;28;20404;-73
2022/03/19 06:38:27;;;;;;;21.63;7.10;;;2.60;99.90;;;;;;5131957;28;20096;-73
2022/03/19 06:40:53;;;;;;;18.98;7.60;;;2.60;99.90;;;;;;5131925;28;20122;-73
2022/03/19 06:43:19;;;;;;;17.45;7.75;;;3.00;99.90;;;;;;5131918;28;20082;-72
2022/03/19 06:45:45;;;;;;;15.55;6.85;;;2.90;99.90;;;;;;5131912;28;20429;-74
2022/03/19 06:48:11;;;;;;;17.60;6.38;;;2.80;99.90;;;;;;5132389;28;20486;-74
2022/03/19 06:50:37;;;;;;;17.13;7.20;;;3.00;99.90;;;;;;5115171;28;20084;-73
2022/03/19 06:53:04;;;;;;;18.67;6.97;;;3.20;99.90;;;;;;5114821;28;20108;-73
2022/03/19 06:55:30;;;;;;;12.65;6.18;;;3.80;99.90;;;;;;5131943;28;20031;-72
2022/03/19 06:57:56;;;;;;;19.70;7.85;;;3.40;99.90;;;;;;5132232;28;20046;-71
2022/03/19 07:00:22;;;;;;;24.40;9.57;;;3.50;99.90;;;;;;5132008;28;20502;-72
2022/03/19 07:02:53;;;;;;;23.40;8.40;;;4.00;99.90;;;;;;5132056;28;20039;-73
2022/03/19 07:05:27;;;;;;;17.70;8.05;;;3.80;99.90;;;;;;5132153;28;20035;-73
2022/03/19 07:07:54;;;;;;;15.82;8.13;;;4.00;99.90;;;;;;5114830;28;20130;-74
2022/03/19 07:10:21;;;;;;;21.95;7.78;;;4.60;99.90;;;;;;5114962;28;20051;-74
2022/03/19 07:12:51;;;;;;;22.40;7.90;;;4.30;99.90;;;;;;5099789;27;20047;-73
2022/03/19 07:15:19;;;;;;;21.47;7.47;;;4.70;99.90;;;;;;5135724;27;20050;-73
2022/03/19 07:17:46;;;;;;;16.13;7.68;;;4.80;99.90;;;;;;5135835;27;20486;-72
2022/03/19 07:20:16;;;;;;;18.58;7.20;;;4.70;99.90;;;;;;5118320;27;20038;-72
2022/03/19 07:22:50;;;;;;;17.75;7.63;;;5.00;99.90;;;;;;5135819;27;20121;-73
2022/03/19 07:25:17;;;;;;;20.60;7.65;;;5.10;99.90;;;;;;5118481;27;20043;-73
2022/03/19 07:27:43;;;;;;;18.17;7.50;;;5.50;99.90;;;;;;5135696;27;20129;-73
2022/03/19 07:30:11;;;;;;;18.40;7.60;;;5.40;99.90;;;;;;5101532;27;20043;-75
2022/03/19 07:32:37;;;;;;;20.05;7.40;;;5.60;99.90;;;;;;5135572;27;20049;-73
2022/03/19 07:35:03;;;;;;;17.30;8.40;;;6.20;99.90;;;;;;5135641;27;20047;-74
2022/03/19 07:37:29;;;;;;;25.50;8.40;;;5.70;99.90;;;;;;5135502;27;20490;-74
2022/03/19 07:39:58;;;;;;;17.52;6.90;;;6.00;99.90;;;;;;5135106;27;20095;-74
2022/03/19 07:42:24;;;;;;;19.27;6.68;;;6.20;99.90;;;;;;5135111;27;20047;-75
2022/03/19 07:44:50;;;;;;;15.98;6.50;;;6.10;99.90;;;;;;5118055;27;20031;-74
2022/03/19 07:47:17;;;;;;;16.13;6.90;;;6.40;99.90;;;;;;5134869;27;20035;-73
2022/03/19 07:49:43;;;;;;;15.98;6.57;;;6.80;99.90;;;;;;5133994;27;20047;-74
2022/03/19 07:52:10;;;;;;;20.65;6.40;;;6.50;99.90;;;;;;5133964;27;20039;-75
2022/03/19 07:54:38;;;;;;;17.50;6.22;;;7.10;99.90;;;;;;5100121;27;20049;-75
2022/03/19 07:57:06;;;;;;;19.20;6.18;;;7.00;99.90;;;;;;5116816;27;20046;-74
2022/03/19 07:59:32;;;;;;;13.95;6.10;;;7.20;99.90;;;;;;5133892;27;20045;-74
2022/03/19 08:01:58;;;;;;;16.85;6.22;;;7.10;99.90;;;;;;5133754;27;20047;-74
2022/03/19 08:04:24;;;;;;;15.90;6.13;;;7.20;99.90;;;;;;5133680;27;20103;-74
2022/03/19 08:06:54;;;;;;;19.85;6.90;;;7.30;99.90;;;;;;5116713;27;20046;-76
2022/03/19 08:09:21;;;;;;;17.60;5.25;;;7.60;99.90;;;;;;5117078;27;20085;-75
2022/03/19 08:11:47;;;;;;;17.65;6.07;;;7.60;99.90;;;;;;5133477;27;20043;-74
2022/03/19 08:14:14;;;;;;;24.83;6.22;;;7.60;99.90;;;;;;5116656;27;20043;-75
2022/03/19 08:16:41;;;;;;;17.80;4.68;;;7.80;99.90;;;;;;5133633;27;20055;-75
2022/03/19 08:19:07;;;;;;;17.17;5.18;;;8.20;99.90;;;;;;5133596;27;20035;-75
2022/03/19 08:21:33;;;;;;;12.00;5.10;;;8.20;99.90;;;;;;5099167;27;20072;-75
2022/03/19 08:23:59;;;;;;;14.85;6.38;;;8.30;99.90;;;;;;5099098;27;20375;-73
2022/03/19 08:26:25;;;;;;;11.88;4.68;;;8.20;99.90;;;;;;5115967;27;20087;-74
2022/03/19 08:28:50;;;;;;;17.45;5.85;;;8.60;99.90;;;;;;5133148;27;20106;-75
2022/03/19 08:31:16;;;;;;;13.85;4.07;;;8.70;99.90;;;;;;5116324;27;20046;-73
2022/03/19 08:33:42;;;;;;;13.48;4.45;;;8.50;99.90;;;;;;5116020;27;20133;-74
2022/03/19 08:36:08;;;;;;;13.20;4.25;;;8.60;99.90;;;;;;5115879;27;20073;-74
2022/03/19 08:41:18;;;;;;;12.70;4.10;;;8.80;99.90;;;;;;5118729;27;20050;-74
2022/03/19 08:43:44;;;;;;;13.95;4.03;;;9.00;99.90;;;;;;5132826;27;20031;-74
2022/03/19 08:46:11;;;;;;;12.48;3.80;;;9.00;99.90;;;;;;5115670;27;20039;-74
2022/03/19 08:48:37;;;;;;;11.60;4.30;;;9.40;99.90;;;;;;5116026;27;20039;-74
2022/03/19 08:53:48;;;;;;;14.30;4.13;;;9.50;99.90;;;;;;5133019;27;20039;-76
2022/03/19 08:56:15;;;;;;;13.70;4.47;;;9.30;99.90;;;;;;5132967;27;20047;-74
2022/03/19 08:58:41;;;;;;;11.27;4.05;;;9.50;99.90;;;;;;5115822;27;20375;-74
2022/03/19 09:01:06;;;;;;;24.48;6.80;;;9.20;99.90;;;;;;5115634;27;20099;-73
2022/03/19 09:03:33;;;;;;;14.07;3.92;;;9.80;99.90;;;;;;5132891;27;20050;-73
2022/03/19 09:05:59;;;;;;;14.35;4.30;;;9.70;99.90;;;;;;5115400;27;20039;-73
2022/03/19 09:08:26;;;;;;;15.40;3.78;;;10.10;99.90;;;;;;5132530;27;20035;-73
2022/03/19 09:10:52;;;;;;;9.77;3.50;;;9.50;99.90;;;;;;5132393;27;20122;-73
2022/03/19 09:13:18;;;;;;;13.45;3.88;;;9.60;99.90;;;;;;5132463;27;20031;-73
2022/03/19 09:15:44;;;;;;;13.50;3.70;;;9.70;99.90;;;;;;5132514;27;20042;-71
2022/03/19 09:18:10;;;;;;;14.65;3.58;;;9.70;99.90;;;;;;5132562;27;20116;-73
2022/03/19 09:20:35;;;;;;;13.55;3.33;;;10.00;99.90;;;;;;5132267;27;20033;-74
2022/03/19 09:23:03;;;;;;;12.38;3.22;;;7.70;99.90;;;;;;5115296;27;20059;-72
2022/03/19 09:25:29;;;;;;;14.80;3.40;;;10.00;99.90;;;;;;5132138;27;20055;-73
2022/03/19 09:27:55;;;;;;;13.23;4.18;;;10.00;99.90;;;;;;5132361;27;20047;-73
2022/03/19 09:30:21;;;;;;;12.05;4.22;;;9.90;99.90;;;;;;5115196;27;20121;-73
2022/03/19 09:32:47;;;;;;;15.82;3.38;;;10.00;99.90;;;;;;5132324;27;20077;-73
2022/03/19 09:35:12;;;;;;;12.02;3.45;;;10.10;99.90;;;;;;5131604;27;20448;-73
2022/03/19 09:37:38;;;;;;;14.48;4.35;;;10.10;99.90;;;;;;5132186;27;20479;-73
2022/03/19 09:40:05;;;;;;;9.00;2.95;;;10.20;99.90;;;;;;5114721;27;20046;-74
2022/03/19 09:42:33;;;;;;;12.30;3.47;;;10.30;99.90;;;;;;5131815;27;20073;-74
2022/03/19 09:44:59;;;;;;;16.05;4.30;;;10.20;99.90;;;;;;5131886;27;20035;-74
2022/03/19 09:47:26;;;;;;;9.45;3.35;;;10.30;99.90;;;;;;5131670;27;20546;-72
2022/03/19 09:49:52;;;;;;;12.02;2.45;;;10.40;99.90;;;;;;5114716;27;20078;-72
2022/03/19 09:52:23;;;;;;;11.82;3.53;;;10.40;99.90;;;;;;5131731;27;20050;-71
2022/03/19 09:54:48;;;;;;;10.88;3.05;;;10.40;99.90;;;;;;5131920;27;20046;-72
2022/03/19 09:57:14;;;;;;;15.18;3.00;;;10.60;99.90;;;;;;5131879;27;20106;-72
2022/03/19 09:59:40;;;;;;;12.73;3.35;;;10.60;99.90;;;;;;5131524;27;20046;-72
2022/03/19 10:02:07;;;;;;;8.60;3.72;;;10.80;99.90;;;;;;5131818;27;20031;-72
2022/03/19 10:04:32;;;;;;;12.93;3.10;;;10.50;99.90;;;;;;5114567;27;20043;-72
2022/03/19 10:09:46;;;;;;;12.73;3.10;;;10.90;99.90;;;;;;5117098;27;20047;-72
2022/03/19 10:12:23;;;;;;;12.15;3.30;;;11.10;99.90;;;;;;5131694;27;20047;-76
2022/03/19 10:14:54;;;;;;;9.50;3.13;;;11.20;99.90;;;;;;5131822;27;20047;-73
2022/03/19 10:17:34;;;;;;;13.55;3.15;;;11.30;99.90;;;;;;5131445;28;20161;-72
2022/03/19 10:20:11;;;;;;;12.98;3.47;;;11.40;99.90;;;;;;5114354;28;20398;-73
2022/03/19 10:22:45;;;;;;;7.25;2.20;;;11.50;99.90;;;;;;5131658;28;20061;-73
2022/03/19 10:25:13;;;;;;;11.82;2.80;;;11.60;99.90;;;;;;5131218;28;20047;-73
2022/03/19 10:27:41;;;;;;;17.48;3.90;;;11.60;99.90;;;;;;5131617;28;20043;-73
2022/03/19 10:30:16;;;;;;;8.95;3.17;;;11.70;99.90;;;;;;5131321;28;20065;-73
2022/03/19 10:32:46;;;;;;;9.80;2.83;;;11.80;99.90;;;;;;5114320;28;20043;-73
2022/03/19 10:35:28;;;;;;;8.88;2.88;;;11.90;99.90;;;;;;5114086;28;20043;-73
2022/03/19 10:37:56;;;;;;;22.15;4.97;;;11.90;99.90;;;;;;5114486;28;20103;-74
2022/03/19 10:40:22;;;;;;;6.95;2.75;;;11.90;99.90;;;;;;5131281;28;20043;-74
2022/03/19 10:42:56;;;;;;;11.55;2.70;;;12.00;99.90;;;;;;5131502;28;20043;-74
2022/03/19 10:45:22;;;;;;;10.75;2.60;;;12.20;99.90;;;;;;5131358;28;20501;-76
2022/03/19 10:47:49;;;;;;;8.93;3.08;;;12.10;99.90;;;;;;5116385;27;20038;-74
2022/03/19 10:50:20;;;;;;;7.80;2.20;;;12.10;99.90;;;;;;5135167;27;20061;-72
2022/03/19 10:52:47;;;;;;;13.32;3.08;;;12.10;99.90;;;;;;5117950;27;20050;-74
2022/03/19 10:55:13;;;;;;;10.80;2.58;;;12.20;99.90;;;;;;5135437;27;20042;-73
2022/03/19 10:57:39;;;;;;;11.20;2.80;;;12.30;99.90;;;;;;5135381;27;20039;-76
2022/03/19 11:00:05;;;;;;;10.18;2.90;;;12.30;99.90;;;;;;5135362;27;20043;-73
2022/03/19 11:02:31;;;;;;;9.07;2.90;;;12.40;99.90;;;;;;5117892;27;20080;-76
2022/03/19 11:04:59;;;;;;;6.45;2.35;;;12.40;99.90;;;;;;5135186;27;20333;-74
2022/03/19 11:07:25;;;;;;;7.45;2.45;;;12.40;99.90;;;;;;5134988;27;20047;-73
2022/03/19 11:09:53;;;;;;;12.52;3.08;;;12.50;99.90;;;;;;5135059;27;20508;-74
2022/03/19 11:12:22;;;;;;;12.90;3.40;;;12.50;99.90;;;;;;5134976;27;20095;-74
2022/03/19 11:14:52;;;;;;;9.75;2.85;;;12.60;99.90;;;;;;5134740;27;20046;-74
2022/03/19 11:17:32;;;;;;;8.45;2.80;;;12.60;99.90;;;;;;5134971;27;20051;-74
2022/03/19 11:20:08;;;;;;;6.00;2.13;;;12.60;99.90;;;;;;5134663;27;20459;-75
2022/03/19 11:22:55;;;;;;;8.30;2.20;;;12.60;99.90;;;;;;5134467;27;20118;-72
2022/03/19 11:25:26;;;;;;;8.20;2.30;;;12.60;98.30;;;;;;5117381;27;20066;-73
2022/03/19 11:27:59;;;;;;;8.32;2.47;;;12.70;99.30;;;;;;5134262;27;20047;-72
2022/03/19 11:30:28;;;;;;;6.85;2.58;;;12.70;99.00;;;;;;5134704;27;20053;-74
2022/03/19 11:33:13;;;;;;;9.20;2.60;;;12.80;99.20;;;;;;5134328;27;20099;-73
2022/03/19 11:35:41;;;;;;;10.45;2.67;;;12.90;98.20;;;;;;5134391;27;20047;-73
2022/03/19 11:38:16;;;;;;;6.45;2.53;;;12.90;98.10;;;;;;5134507;27;20057;-73
2022/03/19 11:40:45;;;;;;;5.55;2.08;;;13.10;98.60;;;;;;5134218;27;20402;-73
2022/03/19 11:43:16;;;;;;;6.78;2.50;;;13.20;98.40;;;;;;5117576;27;20035;-74
2022/03/19 11:45:55;;;;;;;;;;;13.50;99.00;;;;;;5134517;27;20088;-74
2022/03/19 11:48:52;;;;;;;6.68;2.10;;;13.70;98.00;;;;;;5116882;27;19961;-75
2022/03/19 11:51:38;;;;;;;5.57;2.03;;;13.80;95.30;;;;;;5134270;27;20390;-73
2022/03/19 11:54:16;;;;;;;7.70;2.25;;;13.90;96.20;;;;;;5117119;27;20555;-73
2022/03/19 11:56:41;;;;;;;5.57;2.50;;;14.00;95.20;;;;;;5133863;27;20038;-72
2022/03/19 11:59:16;;;;;;;6.70;2.22;;;14.10;96.50;;;;;;5133644;27;20403;-73
2022/03/19 12:02:05;;;;;;;5.10;1.73;;;14.00;94.20;;;;;;5117001;27;20039;-72
2022/03/19 12:04:47;;;;;;;5.75;2.10;;;14.10;93.60;;;;;;5133663;27;20039;-72
2022/03/19 12:07:44;;;;;;;8.02;2.40;;;14.10;92.10;;;;;;5133719;27;20035;-72
2022/03/19 12:10:16;;;;;;;10.60;2.50;;;14.20;93.70;;;;;;5133574;27;20467;-73
2022/03/19 12:12:43;;;;;;;12.65;2.63;;;14.40;93.80;;;;;;5133685;27;20078;-72
2022/03/19 12:15:34;;;;;;;4.47;1.83;;;14.40;93.60;;;;;;5116653;27;20421;-72
2022/03/19 12:18:26;;;;;;;2.92;1.52;;;14.60;93.40;;;;;;5133737;27;20414;-71
2022/03/19 12:20:54;;;;;;;4.55;1.55;;;14.80;92.20;;;;;;5133779;27;20047;-72
2022/03/19 12:23:20;;;;;;;3.42;1.65;;;15.10;92.90;;;;;;5133673;27;20046;-74
2022/03/19 12:26:05;;;;;;;5.68;2.05;;;15.00;92.10;;;;;;5116182;27;20047;-74
2022/03/19 12:28:31;;;;;;;4.38;1.50;;;15.10;91.20;;;;;;5133798;27;20058;-74
2022/03/19 12:31:14;;;;;;;5.00;1.60;;;15.30;92.30;;;;;;5133234;27;20035;-74
2022/03/19 12:33:40;;;;;;;5.63;2.38;;;15.40;90.40;;;;;;5133222;27;20444;-74
2022/03/19 12:36:20;;;;;;;4.95;1.67;;;15.70;91.50;;;;;;5133110;27;20035;-75
2022/03/19 12:38:48;;;;;;;3.00;1.33;;;15.90;89.20;;;;;;5115969;27;20046;-75
2022/03/19 12:41:29;;;;;;;8.45;2.33;;;16.00;90.20;;;;;;5099272;27;20035;-75
2022/03/19 12:43:58;;;;;;;5.05;1.52;;;16.20;84.60;;;;;;5133407;27;20209;-74
2022/03/19 12:46:26;;;;;;;5.43;1.83;;;16.20;83.70;;;;;;5116144;27;20435;-74
2022/03/19 12:49:04;;;;;;;6.43;1.63;;;16.50;85.80;;;;;;5132979;27;20125;-74
2022/03/19 12:51:30;;;;;;;7.65;1.90;;;16.40;81.50;;;;;;5133083;27;20078;-73
2022/03/19 12:53:56;;;;;;;5.22;1.80;;;16.50;82.70;;;;;;5115662;27;20070;-74
2022/03/19 12:56:24;;;;;;;5.95;1.70;;;16.60;83.10;;;;;;5132849;27;20099;-74
2022/03/19 12:58:56;;;;;;;4.93;1.58;;;16.70;81.50;;;;;;5132760;27;20474;-72
2022/03/19 13:01:27;;;;;;;5.93;1.50;;;16.80;78.40;;;;;;5133021;27;20039;-74
2022/03/19 13:03:53;;;;;;;;;;;17.10;80.70;;;;;;5133127;27;20042;-74
2022/03/19 13:06:30;;;;;;;3.42;1.17;;;17.20;75.90;;;;;;5132632;27;19915;-73
2022/03/19 13:08:56;;;;;;;3.42;1.50;;;17.00;70.20;;;;;;5132539;27;20498;-73